Time;durP1;ratioP1;P1;durP2;ratioP2;P2;SDS_P1;SDS_P2;PMS_P1;PMS_P2;Temp;Humidity;BMP_temperature;BMP_pressure;BME280_temperature;BME280_humidity;BME280_pressure;Samples;Min_cycle;Max_cycle;Signal;HPM_P1;HPM_P2
2022/06/26 00:01:29;;;;;;;1.77;1.00;;;27.80;44.60;;;;;;5087420;28;45240;-89
2022/06/26 00:03:56;;;;;;;1.23;1.13;;;27.80;44.40;;;;;;5084893;28;45257;-89
2022/06/26 00:06:22;;;;;;;1.58;1.00;;;27.70;44.50;;;;;;5087737;28;45240;-88
2022/06/26 00:08:49;;;;;;;1.00;0.90;;;27.70;44.40;;;;;;5079390;28;45475;-89
2022/06/26 00:11:18;;;;;;;1.52;1.10;;;27.70;45.00;;;;;;5061911;28;45219;-89
2022/06/26 00:13:44;;;;;;;1.00;1.00;;;27.70;44.90;;;;;;5067333;28;45280;-88
2022/06/26 00:16:11;;;;;;;2.05;1.05;;;27.60;44.40;;;;;;5067137;28;45329;-89
2022/06/26 00:18:38;;;;;;;0.90;0.90;;;27.60;44.90;;;;;;5064752;28;45365;-89
2022/06/26 00:21:05;;;;;;;1.40;1.08;;;27.60;44.70;;;;;;5067120;28;45419;-89
2022/06/26 00:23:34;;;;;;;0.98;0.90;;;27.60;44.80;;;;;;5064431;28;45370;-88
2022/06/26 00:26:01;;;;;;;0.80;0.80;;;27.60;44.90;;;;;;5067044;28;45194;-88
2022/06/26 00:28:29;;;;;;;0.90;0.90;;;27.60;45.20;;;;;;5068497;28;45231;-88
2022/06/26 00:30:56;;;;;;;1.08;0.95;;;27.50;44.90;;;;;;5070070;28;45304;-88
2022/06/26 00:33:23;;;;;;;1.17;1.08;;;27.50;44.90;;;;;;5070109;28;45327;-89
2022/06/26 00:35:50;;;;;;;0.90;0.90;;;27.50;45.10;;;;;;5067846;28;45320;-87
2022/06/26 00:38:16;;;;;;;0.98;0.88;;;27.50;44.70;;;;;;5067265;28;45179;-88
2022/06/26 00:40:43;;;;;;;1.20;1.05;;;27.50;45.70;;;;;;5067501;28;45384;-88
2022/06/26 00:43:10;;;;;;;1.08;0.93;;;27.50;45.10;;;;;;5070141;28;45313;-88
2022/06/26 00:45:38;;;;;;;0.90;0.90;;;27.40;45.10;;;;;;5070099;28;45345;-88
2022/06/26 00:48:06;;;;;;;1.00;1.00;;;27.40;45.50;;;;;;5067890;28;44658;-89
2022/06/26 00:50:32;;;;;;;1.00;1.00;;;27.40;45.40;;;;;;5069915;28;46574;-89
2022/06/26 00:52:59;;;;;;;1.50;1.05;;;27.40;45.30;;;;;;5067320;28;45263;-88
2022/06/26 00:55:26;;;;;;;0.80;0.80;;;27.40;45.90;;;;;;5070138;28;45246;-88
2022/06/26 00:57:53;;;;;;;1.02;1.02;;;27.40;45.40;;;;;;5070649;28;45331;-88
2022/06/26 01:00:20;;;;;;;0.90;0.90;;;27.30;45.20;;;;;;5069979;28;45350;-88
2022/06/26 01:02:48;;;;;;;0.80;0.80;;;27.30;45.50;;;;;;5069905;28;45198;-89
2022/06/26 01:05:15;;;;;;;1.10;0.93;;;27.30;45.40;;;;;;5070207;28;45442;-89
2022/06/26 01:07:42;;;;;;;1.98;1.10;;;27.30;45.30;;;;;;5070205;28;45265;-89
2022/06/26 01:10:10;;;;;;;1.10;0.80;;;27.30;45.80;;;;;;5055826;28;47023;-89
2022/06/26 01:12:36;;;;;;;0.75;0.75;;;27.30;46.00;;;;;;5046927;28;45242;-89
2022/06/26 01:15:06;;;;;;;1.50;0.90;;;27.20;45.80;;;;;;5049371;28;45205;-89
2022/06/26 01:17:33;;;;;;;0.82;0.82;;;27.20;45.60;;;;;;5049631;28;45617;-89
2022/06/26 01:20:02;;;;;;;0.85;0.85;;;27.20;46.00;;;;;;5049191;28;46667;-88
2022/06/26 01:22:30;;;;;;;0.90;0.90;;;27.20;45.80;;;;;;5049436;28;45219;-89
2022/06/26 01:24:57;;;;;;;1.95;0.80;;;27.20;45.90;;;;;;5049459;28;45300;-89
2022/06/26 01:27:24;;;;;;;1.02;0.95;;;27.20;46.20;;;;;;5046827;28;45311;-88
2022/06/26 01:29:51;;;;;;;0.90;0.90;;;27.10;46.30;;;;;;5048728;28;45238;-88
2022/06/26 01:32:18;;;;;;;1.00;1.00;;;27.10;45.80;;;;;;5049037;28;45242;-89
2022/06/26 01:34:44;;;;;;;1.02;0.98;;;27.10;46.20;;;;;;5046562;28;45235;-88
2022/06/26 01:37:11;;;;;;;1.10;1.00;;;27.10;45.60;;;;;;5049300;28;45391;-88
2022/06/26 01:39:39;;;;;;;1.10;1.00;;;27.10;45.90;;;;;;5048553;28;45428;-88
2022/06/26 01:42:06;;;;;;;0.80;0.80;;;27.00;46.10;;;;;;5049326;28;45150;-87
2022/06/26 01:44:33;;;;;;;1.00;1.00;;;27.00;46.00;;;;;;5048691;28;45133;-88
2022/06/26 01:47:00;;;;;;;1.33;1.10;;;27.00;46.00;;;;;;5048611;28;45204;-88
2022/06/26 01:49:27;;;;;;;0.90;0.90;;;27.00;45.90;;;;;;5066120;28;46684;-88
2022/06/26 01:51:54;;;;;;;0.90;0.90;;;27.00;45.80;;;;;;5086289;28;45319;-88
2022/06/26 01:54:21;;;;;;;0.90;0.90;;;27.00;45.90;;;;;;5086667;28;45242;-88
2022/06/26 01:56:49;;;;;;;1.10;1.10;;;26.90;45.80;;;;;;5089639;28;45184;-88
2022/06/26 01:59:16;;;;;;;0.80;0.80;;;26.90;46.00;;;;;;5089433;28;47378;-87
2022/06/26 02:01:43;;;;;;;0.90;0.80;;;26.90;46.00;;;;;;5088860;28;45307;-87
2022/06/26 02:04:15;;;;;;;0.93;0.93;;;26.90;47.00;;;;;;5086553;28;45245;-88
2022/06/26 02:06:43;;;;;;;0.90;0.90;;;26.90;46.00;;;;;;5089790;28;45351;-88
2022/06/26 02:13:36;;;;;;;0.93;0.80;;;26.90;46.30;;;;;;5080658;28;46864;-88
2022/06/26 02:14:42;;;;;;;1.05;0.95;;;26.80;46.30;;;;;;5068725;28;45220;-88
2022/06/26 02:17:09;;;;;;;0.90;0.90;;;26.80;46.30;;;;;;5066391;28;45317;-89
2022/06/26 02:19:35;;;;;;;1.98;1.00;;;26.80;46.20;;;;;;5068543;28;46636;-88
2022/06/26 02:22:02;;;;;;;0.90;0.90;;;26.80;46.30;;;;;;5068505;28;45432;-89
2022/06/26 02:24:29;;;;;;;0.85;0.85;;;26.80;46.30;;;;;;5068483;28;45318;-88
2022/06/26 02:26:57;;;;;;;1.38;0.90;;;26.70;46.30;;;;;;5066256;28;45285;-89
2022/06/26 02:29:24;;;;;;;0.80;0.80;;;26.70;46.30;;;;;;5065658;28;45663;-89
2022/06/26 02:31:51;;;;;;;0.70;0.70;;;26.70;46.40;;;;;;5065678;28;45169;-88
2022/06/26 02:34:18;;;;;;;0.77;0.77;;;26.70;46.30;;;;;;5065032;28;45296;-87
2022/06/26 02:36:45;;;;;;;1.05;1.02;;;26.70;46.50;;;;;;5068816;28;45402;-88
2022/06/26 02:39:12;;;;;;;0.90;0.90;;;26.60;46.30;;;;;;5067973;28;46222;-89
2022/06/26 02:41:39;;;;;;;0.98;0.82;;;26.60;46.40;;;;;;5065636;28;45281;-88
2022/06/26 02:44:07;;;;;;;0.82;0.82;;;26.60;46.70;;;;;;5068236;28;45182;-87
2022/06/26 02:46:34;;;;;;;0.90;0.90;;;26.60;46.70;;;;;;5068685;28;45356;-87
2022/06/26 02:49:01;;;;;;;0.98;0.70;;;26.50;46.50;;;;;;5065730;28;46566;-87
2022/06/26 02:51:27;;;;;;;0.88;0.88;;;26.60;46.60;;;;;;5064501;28;45135;-87
2022/06/26 02:53:54;;;;;;;1.48;0.90;;;26.50;46.80;;;;;;5052247;28;45142;-87
2022/06/26 02:56:21;;;;;;;1.42;0.80;;;26.50;46.90;;;;;;5045450;28;45206;-88
2022/06/26 02:58:48;;;;;;;0.80;0.80;;;26.50;46.70;;;;;;5047504;28;46495;-87
2022/06/26 03:01:16;;;;;;;0.93;0.93;;;26.40;46.90;;;;;;5045072;28;45486;-87
2022/06/26 03:03:43;;;;;;;0.90;0.90;;;26.40;46.80;;;;;;5045154;28;45262;-87
2022/06/26 03:06:10;;;;;;;1.00;0.93;;;26.40;46.90;;;;;;5047768;28;45444;-88
2022/06/26 03:08:37;;;;;;;1.30;0.80;;;26.40;47.00;;;;;;5047092;28;46518;-88
2022/06/26 03:11:04;;;;;;;0.80;0.80;;;26.40;47.10;;;;;;5060722;28;45332;-87
2022/06/26 03:13:30;;;;;;;0.90;0.90;;;26.40;47.10;;;;;;5067312;28;45293;-87
2022/06/26 03:15:57;;;;;;;0.70;0.70;;;26.40;47.10;;;;;;5068044;28;45162;-87
2022/06/26 03:18:26;;;;;;;1.10;1.05;;;26.40;47.30;;;;;;5067504;28;45733;-88
2022/06/26 03:20:52;;;;;;;1.08;1.08;;;26.30;47.30;;;;;;5067104;28;45396;-88
2022/06/26 03:23:19;;;;;;;1.00;1.00;;;26.30;47.30;;;;;;5064343;28;45265;-87
2022/06/26 03:25:46;;;;;;;1.50;1.00;;;26.30;47.30;;;;;;5068017;28;45321;-87
2022/06/26 03:28:13;;;;;;;0.80;0.80;;;26.30;47.40;;;;;;5067417;28;45204;-88
2022/06/26 03:30:40;;;;;;;0.98;0.98;;;26.30;47.30;;;;;;5067888;28;45262;-88
2022/06/26 03:33:07;;;;;;;0.73;0.73;;;26.30;47.20;;;;;;5067685;28;45347;-88
2022/06/26 03:35:35;;;;;;;0.88;0.73;;;26.20;47.30;;;;;;5067659;28;45437;-88
2022/06/26 03:38:02;;;;;;;0.90;0.90;;;26.20;47.40;;;;;;5067736;28;45369;-87
2022/06/26 03:40:29;;;;;;;1.00;1.00;;;26.20;47.40;;;;;;5067393;28;45201;-87
2022/06/26 03:42:56;;;;;;;0.90;0.90;;;26.10;47.20;;;;;;5065619;28;45186;-87
2022/06/26 03:45:22;;;;;;;1.52;0.90;;;26.10;47.40;;;;;;5067647;28;45429;-87
2022/06/26 03:47:49;;;;;;;0.90;0.90;;;26.10;47.50;;;;;;5066953;28;45448;-88
2022/06/26 03:50:17;;;;;;;0.77;0.70;;;26.10;47.50;;;;;;5066785;28;45456;-87
2022/06/26 03:52:45;;;;;;;0.80;0.80;;;26.10;47.40;;;;;;5062719;28;45219;-87
2022/06/26 03:55:12;;;;;;;0.70;0.70;;;26.00;47.50;;;;;;5047266;28;45222;-88
2022/06/26 03:57:39;;;;;;;1.15;0.93;;;26.00;47.40;;;;;;5046894;28;45402;-87
2022/06/26 04:00:07;;;;;;;3.05;0.80;;;26.00;47.30;;;;;;5046853;28;45613;-87
2022/06/26 04:02:34;;;;;;;1.10;1.00;;;26.00;47.60;;;;;;5049360;28;45187;-87
2022/06/26 04:05:01;;;;;;;0.82;0.82;;;26.00;47.50;;;;;;5051480;28;45189;-87
2022/06/26 04:07:28;;;;;;;1.00;1.00;;;26.00;47.70;;;;;;5050885;28;45328;-88
2022/06/26 04:09:56;;;;;;;0.73;0.73;;;26.00;47.50;;;;;;5054879;28;45336;-87
2022/06/26 04:12:23;;;;;;;1.15;0.75;;;25.90;47.70;;;;;;5069132;28;45176;-88
2022/06/26 04:14:50;;;;;;;0.98;0.95;;;25.90;47.60;;;;;;5092960;27;44894;-88
2022/06/26 04:17:17;;;;;;;0.90;0.90;;;25.90;47.70;;;;;;5091704;27;45296;-88
2022/06/26 04:19:44;;;;;;;1.58;0.95;;;25.90;47.70;;;;;;5091782;27;44788;-88
2022/06/26 04:22:11;;;;;;;0.90;0.90;;;25.90;47.80;;;;;;5094371;27;44748;-88
2022/06/26 04:24:38;;;;;;;0.90;0.90;;;25.90;47.80;;;;;;5094752;27;44743;-88
2022/06/26 04:27:07;;;;;;;0.90;0.90;;;25.90;47.70;;;;;;5093867;27;47270;-87
2022/06/26 04:29:34;;;;;;;0.90;0.90;;;25.90;47.50;;;;;;5094394;27;44782;-89
2022/06/26 04:32:00;;;;;;;0.90;0.90;;;25.90;47.80;;;;;;5092301;27;44738;-89
2022/06/26 04:34:27;;;;;;;0.82;0.82;;;25.90;47.80;;;;;;5094813;27;44766;-88
2022/06/26 04:36:54;;;;;;;1.00;1.00;;;25.90;47.70;;;;;;5094888;27;45289;-88
2022/06/26 04:39:21;;;;;;;1.02;0.90;;;25.90;47.80;;;;;;5092001;27;44735;-88
2022/06/26 04:41:48;;;;;;;1.10;0.90;;;25.90;47.70;;;;;;5092269;27;44856;-88
2022/06/26 04:44:17;;;;;;;0.98;0.98;;;25.90;47.90;;;;;;5095143;27;44767;-88
2022/06/26 04:46:46;;;;;;;2.55;0.80;;;25.80;48.40;;;;;;5094494;27;45582;-88
2022/06/26 04:49:13;;;;;;;1.33;0.80;;;25.80;47.90;;;;;;5094475;27;44806;-88
2022/06/26 04:51:40;;;;;;;0.85;0.85;;;25.80;48.00;;;;;;5094565;27;44739;-88
2022/06/26 04:54:09;;;;;;;0.75;0.75;;;25.80;48.20;;;;;;5079642;28;44787;-88
2022/06/26 04:56:36;;;;;;;0.88;0.88;;;25.70;48.40;;;;;;5071467;28;45725;-88
2022/06/26 04:59:03;;;;;;;0.90;0.90;;;25.70;48.30;;;;;;5068092;28;45289;-88
2022/06/26 05:01:31;;;;;;;0.95;0.90;;;25.80;48.60;;;;;;5047656;28;45400;-88
2022/06/26 05:03:58;;;;;;;0.80;0.80;;;25.80;48.70;;;;;;5047621;28;45189;-88
2022/06/26 05:06:25;;;;;;;0.75;0.75;;;25.80;48.70;;;;;;5050161;28;45430;-88
2022/06/26 05:08:52;;;;;;;0.90;0.90;;;25.80;48.50;;;;;;5049732;28;45207;-88
2022/06/26 05:11:19;;;;;;;0.90;0.90;;;25.80;48.50;;;;;;5047396;28;45319;-89
2022/06/26 05:13:47;;;;;;;0.80;0.80;;;25.80;48.50;;;;;;5049312;28;45573;-88
2022/06/26 05:16:14;;;;;;;1.15;1.05;;;25.80;49.10;;;;;;5049500;28;47485;-87
2022/06/26 05:18:42;;;;;;;0.93;0.88;;;25.90;48.30;;;;;;5050013;28;45131;-88
2022/06/26 05:21:09;;;;;;;0.77;0.77;;;25.90;48.30;;;;;;5049799;28;45280;-88
2022/06/26 05:23:35;;;;;;;1.10;1.00;;;25.90;48.30;;;;;;5050088;28;45439;-87
2022/06/26 05:26:02;;;;;;;2.50;1.00;;;25.90;48.30;;;;;;5046673;28;45368;-87
2022/06/26 05:28:29;;;;;;;0.90;0.90;;;25.90;48.40;;;;;;5049559;28;45168;-88
2022/06/26 05:30:56;;;;;;;2.35;1.27;;;25.90;48.60;;;;;;5049519;28;45300;-87
2022/06/26 05:33:23;;;;;;;1.10;1.00;;;25.90;48.50;;;;;;5047374;28;45308;-88
2022/06/26 05:35:51;;;;;;;0.90;0.90;;;25.80;48.40;;;;;;5049136;28;45372;-88
2022/06/26 05:38:18;;;;;;;0.88;0.88;;;25.80;48.70;;;;;;5048972;28;45225;-88
2022/06/26 05:40:45;;;;;;;2.30;1.02;;;25.80;48.70;;;;;;5049454;28;45181;-88
2022/06/26 05:43:12;;;;;;;0.93;0.90;;;25.80;48.70;;;;;;5049514;28;45371;-88
2022/06/26 05:45:39;;;;;;;1.10;0.93;;;25.80;48.70;;;;;;5046495;28;45474;-88
2022/06/26 05:48:06;;;;;;;1.00;0.88;;;25.70;48.80;;;;;;5048927;28;45288;-88
2022/06/26 05:50:33;;;;;;;2.63;1.10;;;25.70;48.80;;;;;;5085390;28;45151;-88
2022/06/26 05:53:01;;;;;;;0.90;0.90;;;25.70;48.70;;;;;;5089382;28;45176;-88
2022/06/26 05:55:28;;;;;;;1.10;1.00;;;25.70;48.60;;;;;;5086565;28;45649;-89
2022/06/26 05:57:55;;;;;;;0.80;0.80;;;25.70;48.80;;;;;;5086444;28;45411;-88
2022/06/26 06:00:22;;;;;;;0.82;0.82;;;25.70;48.80;;;;;;5089451;28;45399;-88
2022/06/26 06:02:49;;;;;;;0.75;0.75;;;25.70;48.80;;;;;;5089946;28;45204;-89
2022/06/26 06:05:16;;;;;;;0.98;0.98;;;25.70;48.90;;;;;;5089429;28;45431;-89
2022/06/26 06:07:42;;;;;;;1.25;1.08;;;25.80;48.80;;;;;;5089410;28;45205;-88
2022/06/26 06:10:11;;;;;;;0.95;0.95;;;25.70;48.90;;;;;;5072538;28;45287;-88
2022/06/26 06:12:38;;;;;;;0.93;0.93;;;25.70;48.80;;;;;;5069259;28;45492;-89
2022/06/26 06:15:06;;;;;;;0.80;0.80;;;25.70;48.90;;;;;;5068799;28;46400;-88
2022/06/26 06:17:40;;;;;;;0.98;0.98;;;25.70;48.90;;;;;;5069588;28;45150;-88
2022/06/26 06:20:09;;;;;;;0.75;0.75;;;25.70;48.90;;;;;;5069020;28;45257;-89
2022/06/26 06:22:36;;;;;;;0.93;0.93;;;25.70;48.80;;;;;;5069420;28;45273;-89
2022/06/26 06:25:03;;;;;;;1.67;1.10;;;25.70;48.90;;;;;;5068251;28;46651;-87
2022/06/26 06:27:31;;;;;;;1.80;0.95;;;25.80;48.90;;;;;;5068502;28;45201;-88
2022/06/26 06:29:58;;;;;;;0.93;0.93;;;25.80;48.90;;;;;;5068777;28;45198;-88
2022/06/26 06:32:25;;;;;;;2.08;0.90;;;25.70;48.60;;;;;;5066127;28;45361;-87
2022/06/26 06:34:52;;;;;;;1.13;0.95;;;25.70;48.90;;;;;;5068433;28;45437;-88
2022/06/26 06:37:19;;;;;;;0.90;0.90;;;25.80;48.90;;;;;;5066234;28;45306;-89
2022/06/26 06:39:46;;;;;;;0.75;0.75;;;25.80;49.00;;;;;;5065853;28;45176;-89
2022/06/26 06:42:13;;;;;;;1.13;1.13;;;25.80;48.90;;;;;;5068462;28;45263;-88
2022/06/26 06:44:41;;;;;;;0.90;0.90;;;25.70;49.00;;;;;;5067654;28;46935;-88
2022/06/26 06:47:08;;;;;;;1.92;0.95;;;25.70;49.10;;;;;;5065504;28;45312;-88
2022/06/26 06:49:35;;;;;;;1.30;0.95;;;25.70;48.90;;;;;;5067933;28;45205;-88
2022/06/26 06:52:02;;;;;;;0.95;0.95;;;25.70;48.90;;;;;;5068770;28;45186;-88
2022/06/26 06:54:29;;;;;;;0.90;0.90;;;25.70;49.00;;;;;;5067948;28;45681;-88
2022/06/26 06:56:56;;;;;;;1.35;0.90;;;25.80;49.10;;;;;;5067916;28;45276;-88
2022/06/26 06:59:23;;;;;;;1.42;1.00;;;25.70;49.00;;;;;;5068670;28;45403;-88
2022/06/26 07:01:51;;;;;;;0.70;0.70;;;25.70;49.00;;;;;;5068800;28;45434;-88
2022/06/26 07:04:18;;;;;;;0.80;0.80;;;25.70;49.80;;;;;;5068554;28;45197;-88
2022/06/26 07:06:45;;;;;;;0.80;0.80;;;25.70;49.00;;;;;;5065956;28;45318;-90
2022/06/26 07:09:12;;;;;;;0.90;0.90;;;25.70;49.10;;;;;;5060153;28;45276;-90
2022/06/26 07:11:39;;;;;;;1.38;1.02;;;25.70;49.00;;;;;;5049261;28;44815;-90
2022/06/26 07:14:05;;;;;;;0.85;0.85;;;25.70;49.00;;;;;;5048247;28;46728;-90
2022/06/26 07:16:32;;;;;;;1.10;1.00;;;25.70;48.90;;;;;;5048437;28;45178;-90
2022/06/26 07:19:01;;;;;;;0.80;0.80;;;25.70;48.90;;;;;;5048535;28;45336;-90
2022/06/26 07:21:28;;;;;;;1.27;1.08;;;25.70;48.90;;;;;;5048495;28;45453;-90
2022/06/26 07:23:54;;;;;;;1.02;1.00;;;25.80;49.00;;;;;;5045073;28;45204;-90
2022/06/26 07:26:21;;;;;;;0.95;0.95;;;25.80;49.10;;;;;;5047532;28;44682;-90
2022/06/26 07:28:48;;;;;;;0.88;0.88;;;25.80;49.00;;;;;;5047802;28;45274;-90
2022/06/26 07:31:15;;;;;;;1.10;0.90;;;25.80;49.10;;;;;;5048048;28;45413;-89
2022/06/26 07:36:27;;;;;;;1.35;0.98;;;25.80;49.10;;;;;;5047256;28;45258;-89
2022/06/26 07:38:54;;;;;;;1.13;0.75;;;25.80;48.90;;;;;;5047022;28;45414;-89
2022/06/26 07:41:21;;;;;;;0.98;0.90;;;25.80;48.90;;;;;;5047709;28;45188;-91
2022/06/26 07:43:48;;;;;;;1.67;0.90;;;25.80;48.80;;;;;;5047523;28;45253;-91
2022/06/26 07:46:15;;;;;;;1.02;0.82;;;25.80;48.90;;;;;;5047162;28;45339;-90
2022/06/26 07:48:42;;;;;;;0.98;0.95;;;25.90;48.90;;;;;;5059477;28;45344;-88
2022/06/26 07:51:09;;;;;;;1.00;1.00;;;25.90;48.90;;;;;;5090077;28;45281;-89
2022/06/26 07:53:37;;;;;;;1.00;0.90;;;25.90;48.90;;;;;;5077304;28;47073;-90
2022/06/26 07:56:05;;;;;;;0.90;0.90;;;25.90;48.90;;;;;;5067437;28;45359;-89
2022/06/26 07:58:32;;;;;;;1.05;0.93;;;25.90;48.90;;;;;;5067301;28;45242;-88
2022/06/26 08:00:58;;;;;;;0.85;0.85;;;25.90;48.80;;;;;;5067507;28;45515;-88
2022/06/26 08:03:25;;;;;;;0.93;0.90;;;26.00;48.80;;;;;;5067159;28;48628;-89
2022/06/26 08:05:52;;;;;;;0.80;0.80;;;26.00;48.70;;;;;;5067474;28;45201;-89
2022/06/26 08:08:19;;;;;;;0.73;0.73;;;26.00;48.60;;;;;;5067597;28;45205;-88
2022/06/26 08:10:47;;;;;;;1.08;0.93;;;26.00;48.50;;;;;;5069876;28;45396;-88
2022/06/26 08:13:14;;;;;;;1.10;0.98;;;26.00;48.50;;;;;;5087825;28;46691;-89
2022/06/26 08:15:41;;;;;;;2.03;1.08;;;26.00;48.50;;;;;;5087234;28;46047;-89
2022/06/26 08:18:08;;;;;;;2.65;1.20;;;26.10;48.50;;;;;;5085196;28;45253;-89
2022/06/26 08:20:35;;;;;;;2.88;1.25;;;26.10;48.40;;;;;;5087648;28;45314;-88
2022/06/26 08:23:01;;;;;;;2.25;1.00;;;26.10;48.50;;;;;;5084603;28;45405;-89
2022/06/26 08:25:28;;;;;;;1.42;1.27;;;26.10;48.40;;;;;;5084679;28;45323;-89
2022/06/26 08:27:57;;;;;;;2.63;1.02;;;26.20;48.50;;;;;;5084116;28;45169;-90
2022/06/26 08:30:23;;;;;;;1.10;1.10;;;26.20;48.40;;;;;;5084863;28;45167;-88
2022/06/26 08:32:51;;;;;;;1.90;1.00;;;26.20;48.50;;;;;;5086950;28;45549;-89
2022/06/26 08:35:18;;;;;;;2.08;1.10;;;26.20;48.40;;;;;;5090963;28;45533;-87
2022/06/26 08:37:46;;;;;;;0.88;0.88;;;26.20;48.80;;;;;;5089607;28;45291;-89
2022/06/26 08:40:13;;;;;;;1.35;1.25;;;26.20;49.40;;;;;;5087719;28;45127;-89
2022/06/26 08:42:40;;;;;;;1.05;1.05;;;26.20;48.60;;;;;;5086996;28;48235;-89
2022/06/26 08:45:09;;;;;;;1.30;1.20;;;26.20;48.60;;;;;;5087146;28;45314;-90
2022/06/26 08:47:37;;;;;;;1.48;1.38;;;26.20;48.70;;;;;;5086918;28;45189;-89
2022/06/26 08:50:04;;;;;;;1.05;1.02;;;26.20;48.50;;;;;;5089425;28;45223;-88
2022/06/26 08:52:31;;;;;;;1.10;1.10;;;26.20;48.50;;;;;;5090200;28;45424;-88
2022/06/26 08:54:58;;;;;;;1.73;1.23;;;26.20;48.60;;;;;;5090516;28;45289;-88
2022/06/26 08:57:25;;;;;;;0.80;0.80;;;26.20;48.60;;;;;;5087961;28;45192;-90
2022/06/26 08:59:52;;;;;;;1.13;1.02;;;26.20;48.40;;;;;;5090967;28;45237;-90
2022/06/26 09:02:20;;;;;;;2.03;1.10;;;26.20;48.40;;;;;;5090476;28;45217;-90
2022/06/26 09:04:47;;;;;;;1.88;1.02;;;26.30;49.00;;;;;;5087577;28;45363;-89
2022/06/26 09:07:14;;;;;;;1.17;1.08;;;26.30;49.40;;;;;;5090169;28;45441;-88
2022/06/26 09:09:41;;;;;;;1.20;1.08;;;26.30;48.80;;;;;;5072093;28;45495;-90
2022/06/26 09:12:08;;;;;;;3.45;1.08;;;26.30;48.60;;;;;;5067967;28;46540;-90
2022/06/26 09:14:35;;;;;;;1.30;1.02;;;26.30;49.10;;;;;;5067823;28;45270;-91
2022/06/26 09:17:02;;;;;;;1.33;1.20;;;26.30;49.60;;;;;;5068280;28;45312;-90
2022/06/26 09:19:33;;;;;;;1.30;1.17;;;26.30;50.60;;;;;;5075484;28;45292;-88
2022/06/26 09:22:07;;;;;;;2.28;1.42;;;26.30;50.50;;;;;;5076963;28;45203;-88
2022/06/26 09:24:36;;;;;;;4.28;1.02;;;26.30;50.40;;;;;;5067373;28;45178;-88
2022/06/26 09:27:05;;;;;;;1.05;1.05;;;26.30;50.70;;;;;;5070387;28;45229;-89
2022/06/26 09:29:32;;;;;;;1.23;1.10;;;26.30;50.20;;;;;;5070863;28;45266;-87
2022/06/26 09:32:07;;;;;;;1.67;1.17;;;26.40;50.10;;;;;;5067571;28;45353;-88
2022/06/26 09:34:36;;;;;;;1.60;1.20;;;26.40;49.90;;;;;;5069737;28;45155;-87
2022/06/26 09:37:04;;;;;;;1.30;1.20;;;26.40;50.20;;;;;;5070166;28;45277;-87
2022/06/26 09:39:31;;;;;;;2.17;1.10;;;26.40;49.90;;;;;;5069914;28;45417;-86
2022/06/26 09:41:58;;;;;;;2.35;1.30;;;26.40;50.60;;;;;;5069549;28;45479;-87
2022/06/26 09:44:25;;;;;;;7.03;1.65;;;26.40;50.00;;;;;;5066797;28;45234;-85
2022/06/26 09:46:52;;;;;;;2.25;1.95;;;26.50;50.30;;;;;;5069978;28;45303;-86
2022/06/26 09:49:19;;;;;;;8.10;1.90;;;26.50;50.10;;;;;;5067970;28;45384;-86
2022/06/26 09:51:47;;;;;;;11.85;3.30;;;26.50;50.30;;;;;;5040689;28;45518;-85
2022/06/26 09:54:14;;;;;;;10.30;3.20;;;26.60;50.60;;;;;;5048265;28;46388;-86
2022/06/26 09:56:41;;;;;;;7.90;3.53;;;26.60;50.70;;;;;;5046068;28;45345;-87
2022/06/26 09:59:08;;;;;;;8.88;3.30;;;26.60;50.90;;;;;;5045750;28;45444;-85
2022/06/26 10:07:05;;;;;;;5.63;3.58;;;26.80;50.70;;;;;;5048919;28;45297;-86
2022/06/26 10:09:32;;;;;;;10.93;3.25;;;26.80;51.10;;;;;;5040692;28;45289;-88
2022/06/26 10:11:59;;;;;;;7.35;3.20;;;26.80;51.00;;;;;;5068804;28;46932;-87
2022/06/26 10:14:28;;;;;;;4.70;2.50;;;26.90;51.30;;;;;;5068433;28;45071;-87
2022/06/26 10:17:15;;;;;;;8.20;3.25;;;26.90;51.30;;;;;;5067972;28;45360;-86
2022/06/26 10:19:44;;;;;;;9.75;2.55;;;26.90;51.60;;;;;;5069266;28;45199;-90
2022/06/26 10:22:12;;;;;;;7.53;2.42;;;26.90;51.40;;;;;;5068505;28;47325;-89
2022/06/26 10:24:50;;;;;;;4.95;2.92;;;27.00;51.30;;;;;;5066022;28;44782;-89
2022/06/26 10:27:17;;;;;;;4.32;2.20;;;27.00;51.30;;;;;;5069451;28;44751;-91
2022/06/26 10:29:43;;;;;;;8.15;2.38;;;27.00;51.60;;;;;;5069047;28;45464;-90
2022/06/26 10:32:10;;;;;;;5.25;2.13;;;27.10;51.80;;;;;;5069198;28;45533;-90
2022/06/26 10:34:37;;;;;;;6.13;2.45;;;27.10;52.10;;;;;;5071856;28;45376;-89
2022/06/26 10:37:05;;;;;;;7.70;2.55;;;27.10;52.70;;;;;;5065309;28;45329;-90
2022/06/26 10:39:46;;;;;;;10.73;2.88;;;27.20;52.70;;;;;;5068311;28;45181;-89
2022/06/26 10:45:10;;;;;;;5.43;2.30;;;27.30;52.70;;;;;;5069044;28;45265;-88
2022/06/26 10:47:47;;;;;;;6.45;2.17;;;27.40;52.70;;;;;;5068162;28;45159;-90
2022/06/26 10:50:28;;;;;;;3.80;1.70;;;27.40;51.80;;;;;;5068979;28;45279;-88
2022/06/26 10:52:55;;;;;;;3.05;1.52;;;27.30;51.70;;;;;;5063095;28;45469;-87
2022/06/26 10:55:23;;;;;;;2.00;1.58;;;27.30;52.40;;;;;;5049002;28;45213;-87
2022/06/26 10:57:50;;;;;;;2.17;1.30;;;27.20;51.70;;;;;;5045663;28;45226;-89
2022/06/26 11:00:17;;;;;;;1.30;1.20;;;27.10;51.80;;;;;;5046129;28;45323;-89
2022/06/26 11:02:45;;;;;;;1.52;1.40;;;27.00;51.80;;;;;;5048282;28;46766;-89
2022/06/26 11:05:12;;;;;;;1.75;1.30;;;27.10;51.60;;;;;;5053412;28;44747;-89
2022/06/26 11:07:43;;;;;;;2.83;1.40;;;27.20;51.50;;;;;;5046297;28;45188;-89
2022/06/26 11:10:12;;;;;;;1.30;1.15;;;27.10;51.60;;;;;;5054018;28;44828;-90
2022/06/26 11:12:45;;;;;;;1.40;1.30;;;27.10;51.50;;;;;;5067737;28;45193;-90
2022/06/26 11:15:28;;;;;;;1.10;1.10;;;27.10;51.60;;;;;;5068369;28;45198;-84
2022/06/26 11:17:58;;;;;;;1.25;1.17;;;27.10;52.00;;;;;;5068850;28;45320;-86
2022/06/26 11:23:19;;;;;;;2.08;1.23;;;27.20;52.20;;;;;;5068140;28;45150;-87
2022/06/26 11:25:46;;;;;;;2.38;1.20;;;27.20;51.30;;;;;;5068501;28;45304;-90
2022/06/26 11:28:15;;;;;;;1.92;1.10;;;27.20;51.00;;;;;;5065364;28;45285;-88
2022/06/26 11:30:42;;;;;;;1.08;1.08;;;27.20;51.20;;;;;;5068699;28;45277;-89
2022/06/26 11:33:09;;;;;;;1.00;1.00;;;27.20;51.30;;;;;;5069011;28;47703;-88
2022/06/26 11:35:36;;;;;;;1.90;1.05;;;27.10;51.20;;;;;;5067904;28;45198;-87
2022/06/26 11:38:14;;;;;;;1.60;1.50;;;27.10;51.50;;;;;;5067431;28;45389;-89
2022/06/26 11:40:41;;;;;;;1.50;1.40;;;27.10;51.60;;;;;;5067839;28;45389;-87
2022/06/26 11:43:08;;;;;;;1.52;1.20;;;27.00;51.70;;;;;;5064607;28;45514;-87
2022/06/26 11:45:37;;;;;;;2.17;1.20;;;27.00;52.00;;;;;;5067333;28;45278;-89
2022/06/26 11:48:07;;;;;;;3.45;1.42;;;27.00;52.10;;;;;;5067910;28;45330;-91
2022/06/26 11:50:34;;;;;;;1.40;1.30;;;27.10;52.20;;;;;;5067523;28;45301;-88
2022/06/26 11:53:02;;;;;;;2.30;1.30;;;27.10;52.10;;;;;;5067419;28;48295;-88
2022/06/26 11:55:29;;;;;;;2.33;1.10;;;27.20;51.80;;;;;;5067858;28;45314;-89
2022/06/26 11:57:57;;;;;;;3.58;1.60;;;27.20;51.80;;;;;;5067594;28;44773;-86
2022/06/26 12:00:24;;;;;;;1.98;1.42;;;27.30;51.70;;;;;;5069547;28;45458;-87
2022/06/26 12:02:52;;;;;;;1.48;1.40;;;27.30;51.40;;;;;;5067061;28;45464;-87
2022/06/26 12:05:22;;;;;;;1.30;1.20;;;27.40;51.20;;;;;;5064591;28;45311;-87
2022/06/26 12:07:50;;;;;;;1.92;1.48;;;27.40;51.10;;;;;;5067605;28;44637;-87
2022/06/26 12:10:26;;;;;;;2.28;1.80;;;27.50;51.30;;;;;;5044863;28;45393;-87
2022/06/26 12:12:53;;;;;;;2.33;1.92;;;27.60;51.20;;;;;;5047207;28;46371;-88
2022/06/26 12:15:24;;;;;;;4.65;2.20;;;27.50;51.10;;;;;;5047326;28;45312;-89
2022/06/26 12:17:56;;;;;;;2.70;1.50;;;27.60;51.30;;;;;;5049050;28;45149;-91
2022/06/26 12:20:23;;;;;;;2.97;1.70;;;27.50;51.20;;;;;;5045401;28;45250;-90
2022/06/26 12:22:51;;;;;;;5.47;2.28;;;27.50;51.20;;;;;;5047088;28;48458;-87
2022/06/26 12:25:28;;;;;;;4.80;2.17;;;27.50;51.10;;;;;;5050892;28;45344;-88
2022/06/26 12:27:55;;;;;;;2.05;1.90;;;27.50;51.40;;;;;;5048083;28;45326;-90
2022/06/26 12:30:24;;;;;;;3.08;1.70;;;27.40;51.20;;;;;;5050582;28;45439;-85
2022/06/26 12:32:50;;;;;;;1.98;1.70;;;27.40;51.40;;;;;;5051422;28;45262;-90
2022/06/26 12:35:19;;;;;;;3.25;1.90;;;27.40;51.20;;;;;;5052335;28;45287;-87
2022/06/26 12:37:46;;;;;;;4.28;2.00;;;27.40;51.40;;;;;;5051001;28;45320;-90
2022/06/26 12:40:13;;;;;;;2.22;1.67;;;27.40;51.20;;;;;;5051269;28;45400;-87
2022/06/26 12:42:40;;;;;;;1.50;1.40;;;27.30;51.40;;;;;;5051484;28;46387;-90
2022/06/26 12:45:08;;;;;;;3.05;1.38;;;27.30;51.50;;;;;;5056413;28;45229;-86
2022/06/26 12:47:35;;;;;;;1.65;1.55;;;27.30;51.70;;;;;;5052731;28;45218;-87
2022/06/26 12:50:02;;;;;;;1.48;1.20;;;27.30;51.60;;;;;;5079629;28;45392;-86
2022/06/26 12:52:32;;;;;;;1.27;1.20;;;27.30;51.60;;;;;;5089696;28;47001;-86
2022/06/26 12:54:59;;;;;;;1.90;1.30;;;27.30;51.50;;;;;;5070384;28;45446;-87
2022/06/26 12:57:25;;;;;;;1.50;1.40;;;27.40;51.50;;;;;;5067569;28;45267;-85
2022/06/26 12:59:52;;;;;;;2.88;1.50;;;27.50;51.30;;;;;;5070461;28;45502;-87
2022/06/26 13:02:19;;;;;;;1.95;1.25;;;27.60;51.10;;;;;;5067506;28;45393;-88
2022/06/26 13:04:46;;;;;;;4.18;1.40;;;27.60;51.20;;;;;;5067639;28;45218;-87